Time;durP1;ratioP1;P1;durP2;ratioP2;P2;SDS_P1;SDS_P2;PMS_P1;PMS_P2;Temp;Humidity;BMP_temperature;BMP_pressure;BME280_temperature;BME280_humidity;BME280_pressure;Samples;Min_cycle;Max_cycle;Signal;HPM_P1;HPM_P2
2021/10/13 00:00:20;;;;;;;1.38;0.40;;;4.40;99.90;;;2.63;100.00;101329.78;4924400;28;20407;-86
2021/10/13 00:02:46;;;;;;;0.35;0.22;;;4.40;99.90;;;2.56;100.00;101323.75;4915353;28;20176;-86
2021/10/13 00:05:12;;;;;;;1.33;0.30;;;4.30;99.90;;;2.55;100.00;101324.63;4937364;28;20057;-85
2021/10/13 00:07:38;;;;;;;1.15;0.20;;;4.30;99.90;;;2.56;100.00;101317.69;4929983;28;20559;-86
2021/10/13 00:10:12;;;;;;;1.23;0.30;;;4.30;99.90;;;2.60;100.00;101320.25;4957982;28;20066;-85
2021/10/13 00:12:38;;;;;;;3.38;0.30;;;4.40;99.90;;;2.67;100.00;101323.69;4943828;28;20086;-86
2021/10/13 00:15:11;;;;;;;2.22;0.38;;;4.50;99.90;;;2.75;100.00;101347.94;4917543;28;21172;-85
2021/10/13 00:17:37;;;;;;;1.23;0.28;;;4.50;99.90;;;2.78;100.00;101349.66;4970454;28;20070;-86
2021/10/13 00:20:06;;;;;;;3.53;0.50;;;4.50;99.90;;;2.78;100.00;101353.09;4931701;28;20095;-85
2021/10/13 00:22:33;;;;;;;2.65;0.30;;;4.50;99.90;;;2.86;100.00;101363.50;4930335;28;20597;-85
2021/10/13 00:24:59;;;;;;;1.10;0.40;;;4.70;99.90;;;3.05;100.00;101385.94;4980788;28;20221;-85
2021/10/13 00:27:30;;;;;;;2.70;0.30;;;4.70;99.90;;;3.02;100.00;101385.97;4924668;28;20578;-85
2021/10/13 00:29:56;;;;;;;10.13;0.35;;;4.70;99.90;;;3.06;100.00;101386.81;4949127;28;20068;-85
2021/10/13 00:32:22;;;;;;;3.75;0.32;;;4.80;99.90;;;3.26;100.00;101405.78;4957129;28;20125;-85
2021/10/13 00:34:48;;;;;;;1.30;0.20;;;5.40;99.90;;;3.43;100.00;101413.47;4971258;28;20070;-86
2021/10/13 00:37:14;;;;;;;1.85;0.30;;;5.10;99.90;;;3.55;100.00;101422.13;4931521;28;20053;-85
2021/10/13 00:39:46;;;;;;;3.80;0.30;;;;;;;3.67;100.00;101419.41;4951944;28;20107;-85
2021/10/13 00:42:12;;;;;;;1.85;0.50;;;;;;;3.77;100.00;101428.88;4946402;28;20059;-85
2021/10/13 00:44:38;;;;;;;2.28;0.38;;;5.40;99.90;;;3.80;100.00;101418.47;4974787;28;20497;-84
2021/10/13 00:47:04;;;;;;;0.60;0.35;;;5.50;99.90;;;3.92;100.00;101406.22;4969081;28;20572;-85
2021/10/13 00:49:35;;;;;;;1.13;0.30;;;;;;;3.88;100.00;101374.97;4974809;28;20070;-85
2021/10/13 00:52:05;;;;;;;3.38;0.63;;;5.40;99.90;;;3.81;100.00;101355.06;4944588;28;20068;-85
2021/10/13 00:54:31;;;;;;;2.35;0.25;;;5.40;99.90;;;3.73;100.00;101323.00;4936557;28;20068;-85
2021/10/13 00:56:57;;;;;;;13.45;0.77;;;5.40;99.90;;;3.76;100.00;101311.69;4948343;28;20091;-85
2021/10/13 00:59:23;;;;;;;1.13;0.32;;;5.40;99.90;;;3.79;100.00;101306.47;4953248;28;20518;-85
2021/10/13 01:02:26;;;;;;;2.47;0.32;;;5.40;99.90;;;3.82;100.00;101304.69;4936528;28;20056;-84
2021/10/13 01:04:55;;;;;;;3.60;0.38;;;5.40;99.90;;;3.86;100.00;101303.75;4946105;28;20076;-85
2021/10/13 01:07:38;;;;;;;6.22;0.65;;;5.50;99.90;;;3.88;100.00;101307.22;4951401;28;20101;-86
2021/10/13 01:10:29;;;;;;;3.22;0.73;;;5.40;99.90;;;3.85;100.00;101295.97;4960086;28;20060;-85
2021/10/13 01:13:23;;;;;;;3.38;0.55;;;5.40;99.90;;;3.81;100.00;101289.06;4939299;28;20576;-85
2021/10/13 01:16:35;;;;;;;1.02;0.32;;;5.40;99.90;;;3.73;100.00;101275.25;4942762;28;20471;-85
2021/10/13 01:19:12;;;;;;;0.30;0.30;;;5.30;99.90;;;3.64;100.00;101268.38;4956792;28;20070;-85
2021/10/13 01:22:19;;;;;;;2.70;0.50;;;5.30;99.90;;;3.66;100.00;101271.84;4909110;28;20646;-85
2021/10/13 01:25:42;;;;;;;1.17;0.30;;;5.30;99.90;;;3.66;100.00;101275.31;4977963;28;20061;-85
2021/10/13 01:28:24;;;;;;;2.75;0.20;;;3.90;99.90;;;3.57;100.00;101279.75;5007042;28;20519;-85
2021/10/13 01:31:20;;;;;;;1.08;0.10;;;5.10;99.90;;;3.33;100.00;101250.44;4954012;28;20128;-85
2021/10/13 01:34:24;;;;;;;5.03;0.40;;;5.00;99.90;;;3.27;100.00;101253.09;4950933;28;20055;-85
2021/10/13 01:37:24;;;;;;;1.60;0.32;;;4.90;99.90;;;3.18;100.00;101260.97;4922938;28;20110;-85
2021/10/13 01:39:56;;;;;;;7.57;0.57;;;4.80;99.90;;;3.04;100.00;101259.31;4945453;28;20070;-85
2021/10/13 01:42:29;;;;;;;1.13;0.30;;;4.70;99.90;;;2.94;100.00;101265.47;4964691;28;20503;-85
2021/10/13 01:44:59;;;;;;;0.40;0.22;;;4.60;99.90;;;2.86;100.00;101280.25;4942491;28;20065;-85
2021/10/13 01:47:38;;;;;;;3.90;0.20;;;4.60;99.90;;;2.87;100.00;101292.38;4949787;28;20093;-85
2021/10/13 01:50:11;;;;;;;0.90;0.20;;;4.60;99.90;;;2.86;100.00;101306.28;4985083;28;20055;-85
2021/10/13 01:52:40;;;;;;;1.45;0.30;;;4.60;99.90;;;2.84;100.00;101310.63;4944570;28;20423;-85
2021/10/13 01:55:10;;;;;;;4.60;0.40;;;4.60;99.90;;;2.80;100.00;101319.31;4958713;28;20083;-85
2021/10/13 01:57:43;;;;;;;3.42;0.30;;;;;;;2.72;100.00;101308.06;4925066;28;20059;-85
2021/10/13 02:00:12;;;;;;;3.10;0.30;;;4.40;99.90;;;2.67;100.00;101321.94;4946584;28;22644;-85
2021/10/13 02:02:49;;;;;;;0.85;0.20;;;4.40;99.90;;;2.65;100.00;101315.88;4922000;28;20061;-85
2021/10/13 02:05:26;;;;;;;0.85;0.13;;;4.30;99.90;;;2.59;100.00;101322.84;4934155;28;20072;-85
2021/10/13 02:07:54;;;;;;;1.17;0.30;;;4.30;99.90;;;2.53;100.00;101321.16;4939998;28;20066;-85
2021/10/13 02:10:25;;;;;;;0.60;0.20;;;4.30;99.90;;;2.54;100.00;101327.22;4944103;28;20081;-86
2021/10/13 02:12:56;;;;;;;1.25;0.45;;;4.20;99.90;;;2.52;100.00;101340.22;4919474;28;20069;-85
2021/10/13 02:15:26;;;;;;;0.93;0.30;;;4.30;99.90;;;2.52;100.00;101342.81;4955179;28;20119;-86
2021/10/13 02:17:59;;;;;;;1.48;0.32;;;4.30;99.90;;;2.51;100.00;101354.09;4932157;28;20086;-85
2021/10/13 02:20:26;;;;;;;1.30;0.43;;;4.20;99.90;;;2.49;100.00;101352.38;4909428;28;20066;-86
2021/10/13 02:22:59;;;;;;;2.28;0.35;;;4.20;99.90;;;2.47;100.00;101360.19;4907099;28;20072;-85
2021/10/13 02:25:37;;;;;;;0.57;0.30;;;4.10;99.90;;;2.26;100.00;101340.28;4907072;28;20063;-85
2021/10/13 02:28:11;;;;;;;0.80;0.30;;;4.00;99.90;;;2.12;100.00;101335.16;4927128;28;20127;-86
2021/10/13 02:30:41;;;;;;;0.90;0.25;;;3.90;99.90;;;1.95;100.00;101324.78;4939570;28;20430;-85
2021/10/13 02:33:09;;;;;;;1.77;0.30;;;3.70;99.90;;;1.97;100.00;101327.38;4928313;28;20055;-86
2021/10/13 02:35:36;;;;;;;0.90;0.20;;;3.70;99.90;;;1.89;100.00;101317.00;4957906;28;20141;-86
2021/10/13 02:38:02;;;;;;;0.70;0.28;;;3.60;99.90;;;1.83;100.00;101322.19;4971991;28;20191;-85
2021/10/13 02:40:36;;;;;;;1.27;0.22;;;3.60;99.90;;;1.81;100.00;101324.81;4929794;28;20061;-85
2021/10/13 02:43:03;;;;;;;0.70;0.25;;;3.60;99.90;;;1.79;100.00;101326.53;4965835;28;20069;-86
2021/10/13 02:45:39;;;;;;;1.70;0.40;;;3.60;99.90;;;1.82;100.00;101330.84;4926323;28;20092;-85
2021/10/13 02:48:09;;;;;;;;;;;;;;;1.82;100.00;101333.47;4933470;28;20105;-85
2021/10/13 02:51:00;;;;;;;1.60;0.20;;;3.60;99.90;;;1.86;100.00;101342.97;4979079;28;20046;-85
2021/10/13 02:53:42;;;;;;;2.83;0.57;;;3.70;99.90;;;2.01;100.00;101360.28;4950022;28;20061;-85
2021/10/13 02:56:30;;;;;;;1.90;0.30;;;3.80;99.90;;;2.12;100.00;101387.09;4947163;28;20070;-85
2021/10/13 02:59:38;;;;;;;5.25;0.47;;;4.00;99.90;;;2.20;100.00;101402.66;4911281;28;20068;-85
2021/10/13 03:02:15;;;;;;;0.70;0.40;;;4.00;99.90;;;2.28;100.00;101410.47;4974590;28;20054;-85
2021/10/13 03:04:56;;;;;;;0.50;0.30;;;4.10;99.90;;;2.43;100.00;101433.84;4929319;28;20537;-85
2021/10/13 03:07:31;;;;;;;1.35;0.47;;;;;;;2.47;100.00;101452.00;4949701;28;20165;-85
2021/10/13 03:10:01;;;;;;;4.53;0.30;;;4.30;99.90;;;2.53;100.00;101463.25;4980908;28;20066;-86
2021/10/13 03:12:53;;;;;;;1.48;0.43;;;4.30;99.90;;;2.58;100.00;101475.41;4962067;28;20062;-86
2021/10/13 03:15:21;;;;;;;1.05;0.40;;;4.30;99.90;;;2.57;100.00;101472.78;4949491;28;20101;-85
2021/10/13 03:17:58;;;;;;;1.83;0.45;;;;;;;2.63;100.00;101483.19;4928482;28;20091;-85
2021/10/13 03:20:36;;;;;;;2.20;0.50;;;4.40;99.90;;;2.60;100.00;101476.25;5016549;28;20112;-85
2021/10/13 03:23:05;;;;;;;4.30;0.70;;;4.20;99.90;;;2.47;100.00;101469.34;5030185;28;20068;-86
2021/10/13 03:25:38;;;;;;;0.85;0.40;;;4.10;99.90;;;2.32;100.00;101453.78;4936879;28;20094;-86
2021/10/13 03:28:05;;;;;;;2.83;0.35;;;;;;;2.21;100.00;101446.00;4934045;28;20077;-85
2021/10/13 03:30:31;;;;;;;2.45;0.60;;;3.90;99.90;;;2.12;100.00;101439.06;4957432;28;20072;-85
2021/10/13 03:32:58;;;;;;;1.05;0.43;;;3.80;99.90;;;2.05;100.00;101434.72;4958341;28;20075;-85
2021/10/13 03:35:32;;;;;;;3.17;0.40;;;;;;;1.94;100.00;101426.91;4986694;28;20146;-86
2021/10/13 03:38:01;;;;;;;1.90;0.52;;;3.80;99.90;;;1.85;100.00;101427.78;4967039;28;20075;-85
2021/10/13 03:40:36;;;;;;;3.58;0.50;;;3.60;99.90;;;1.74;100.00;101419.13;4914407;28;20098;-85
2021/10/13 03:43:03;;;;;;;3.00;0.50;;;3.50;99.90;;;1.72;100.00;101418.25;4946488;28;20060;-85
2021/10/13 03:45:30;;;;;;;2.00;0.38;;;3.50;99.90;;;1.73;100.00;101425.22;4940271;28;20184;-85
2021/10/13 03:48:07;;;;;;;3.22;0.50;;;3.50;99.90;;;1.71;100.00;101424.34;4958127;28;20080;-85
2021/10/13 03:50:33;;;;;;;2.75;0.82;;;3.50;99.90;;;1.70;100.00;101422.59;4906386;28;20552;-85
2021/10/13 03:52:59;;;;;;;1.23;0.45;;;3.50;99.90;;;1.75;100.00;101420.88;4943054;28;20060;-85
2021/10/13 03:55:31;;;;;;;1.05;0.57;;;3.50;99.90;;;1.71;100.00;101429.53;4973450;28;20114;-85
2021/10/13 03:57:57;;;;;;;1.15;0.50;;;3.40;99.90;;;1.63;100.00;101424.31;4955144;28;20071;-85
2021/10/13 04:00:23;;;;;;;4.85;1.02;;;3.40;99.90;;;1.59;100.00;101419.97;4938338;28;20582;-86
2021/10/13 04:02:49;;;;;;;3.78;0.75;;;3.40;99.90;;;1.59;100.00;101425.16;4962005;28;20058;-85
2021/10/13 04:05:20;;;;;;;4.97;1.00;;;3.40;99.90;;;1.64;100.00;101436.44;4949560;28;20061;-85
2021/10/13 04:07:46;;;;;;;2.65;1.00;;;;;;;1.62;100.00;101438.16;4951752;28;20069;-85
2021/10/13 04:10:15;;;;;;;1.77;0.90;;;3.50;99.90;;;1.73;100.00;101464.16;4940564;28;20067;-86
2021/10/13 04:12:42;;;;;;;1.98;0.88;;;3.50;99.90;;;1.73;100.00;101461.56;4935957;28;20071;-86
2021/10/13 04:15:16;;;;;;;2.47;1.00;;;3.40;99.90;;;1.64;100.00;101457.22;4935993;28;20060;-85
2021/10/13 04:17:42;;;;;;;1.02;0.70;;;4.80;99.90;;;1.64;100.00;101464.09;4915490;28;20069;-86
2021/10/13 04:20:11;;;;;;;0.60;0.60;;;3.40;99.90;;;1.63;100.00;101467.59;4974232;28;20097;-85
2021/10/13 04:22:46;;;;;;;3.15;1.00;;;;;;;1.61;100.00;101471.91;4942137;28;20069;-85
2021/10/13 04:25:12;;;;;;;1.88;0.80;;;3.30;99.90;;;1.57;100.00;101464.97;4955350;28;20083;-86
2021/10/13 04:27:38;;;;;;;1.65;0.80;;;3.30;99.90;;;1.46;100.00;101457.16;4956766;28;20079;-86
2021/10/13 04:30:16;;;;;;;2.28;0.90;;;3.20;99.90;;;1.36;100.00;101445.91;4938946;28;20076;-86
2021/10/13 04:32:52;;;;;;;3.45;1.20;;;3.10;99.90;;;1.31;100.00;101445.00;4930631;28;20106;-86
2021/10/13 04:35:18;;;;;;;3.20;1.30;;;3.20;99.90;;;1.28;100.00;101445.00;4965812;28;20142;-85
2021/10/13 04:37:44;;;;;;;4.10;1.40;;;3.10;99.90;;;1.21;100.00;101438.94;4945175;28;20172;-85
2021/10/13 04:40:11;;;;;;;5.30;1.42;;;3.10;99.90;;;1.18;100.00;101445.81;4931746;28;20082;-86
2021/10/13 04:42:46;;;;;;;3.20;1.08;;;3.10;99.90;;;1.21;100.00;101454.50;4956199;28;20062;-86
2021/10/13 04:45:12;;;;;;;2.43;1.20;;;3.10;99.90;;;1.20;100.00;101452.75;4937227;28;20069;-86
2021/10/13 04:47:38;;;;;;;1.90;1.08;;;3.00;99.90;;;1.17;100.00;101455.34;4955466;28;20101;-87
2021/10/13 04:50:14;;;;;;;7.40;1.08;;;3.00;99.90;;;1.20;100.00;101457.94;4916763;28;20070;-86
2021/10/13 04:52:40;;;;;;;3.55;0.88;;;3.10;99.90;;;1.28;100.00;101473.53;4900798;28;20154;-86
2021/10/13 04:55:09;;;;;;;1.58;0.73;;;3.10;99.90;;;1.24;100.00;101471.78;4912324;28;20067;-86
2021/10/13 04:57:39;;;;;;;3.25;0.77;;;;;;;1.25;100.00;101475.25;4958678;28;20060;-86
2021/10/13 05:00:06;;;;;;;3.47;0.60;;;3.10;99.90;;;1.27;100.00;101479.56;4980677;28;20062;-86
2021/10/13 05:02:32;;;;;;;1.23;0.70;;;3.10;99.90;;;1.30;100.00;101477.00;4952620;28;20069;-86
2021/10/13 05:04:58;;;;;;;1.95;0.70;;;3.10;99.90;;;1.43;100.00;101502.13;4920874;28;20100;-86
2021/10/13 05:07:32;;;;;;;2.53;0.90;;;;;;;1.44;100.00;101503.00;4932371;28;20519;-86
2021/10/13 05:09:58;;;;;;;3.70;0.60;;;3.20;99.90;;;1.46;100.00;101510.81;4929163;28;20071;-85
2021/10/13 05:12:24;;;;;;;3.17;0.60;;;3.20;99.90;;;1.49;100.00;101505.59;4940127;28;20064;-86
2021/10/13 05:14:51;;;;;;;1.02;0.50;;;3.20;99.90;;;1.47;100.00;101518.59;4991218;28;20120;-85
2021/10/13 05:17:24;;;;;;;2.60;0.40;;;;;;;1.53;100.00;101521.19;4928520;28;20084;-86
2021/10/13 05:19:50;;;;;;;1.25;0.50;;;3.30;99.90;;;1.63;100.00;101546.31;4980610;28;20061;-86
2021/10/13 05:22:17;;;;;;;2.58;0.50;;;;;;;1.63;100.00;101540.28;4931420;28;20193;-86
2021/10/13 05:24:43;;;;;;;4.97;0.50;;;3.40;99.90;;;1.68;100.00;101550.66;4963831;28;20098;-86
2021/10/13 05:27:14;;;;;;;3.50;0.40;;;3.40;99.90;;;1.79;100.00;101561.94;4944071;28;20416;-85
2021/10/13 05:29:40;;;;;;;5.97;0.63;;;3.50;99.90;;;1.82;100.00;101573.22;4925677;28;20073;-85
2021/10/13 05:32:06;;;;;;;0.38;0.38;;;;;;;1.93;100.00;101577.59;5017854;28;20065;-85
2021/10/13 05:34:32;;;;;;;1.23;0.40;;;3.50;99.90;;;1.87;100.00;101572.38;5035552;28;20550;-85
2021/10/13 05:36:59;;;;;;;1.85;0.60;;;3.50;99.90;;;1.82;100.00;101569.78;4986713;28;20062;-85
2021/10/13 05:39:34;;;;;;;1.17;0.40;;;3.50;99.90;;;1.89;100.00;101581.91;4958806;28;20062;-86
2021/10/13 05:42:00;;;;;;;2.03;0.63;;;3.60;99.90;;;1.99;100.00;101596.66;4949571;28;20527;-86
2021/10/13 05:44:26;;;;;;;1.85;0.75;;;3.70;99.90;;;2.08;100.00;101602.75;4925099;28;20345;-86
2021/10/13 05:46:57;;;;;;;1.63;0.60;;;3.80;99.90;;;2.11;100.00;101602.75;4973978;28;20428;-86
2021/10/13 05:49:25;;;;;;;12.68;0.70;;;3.80;99.90;;;2.24;100.00;101613.16;4943537;28;20969;-86
2021/10/13 05:51:51;;;;;;;6.13;0.90;;;3.90;99.90;;;2.24;100.00;101620.94;4950124;28;20056;-85
2021/10/13 05:54:18;;;;;;;2.92;0.75;;;4.00;99.90;;;2.43;100.00;101628.78;4922015;28;20065;-85
2021/10/13 05:56:54;;;;;;;1.67;0.68;;;4.10;99.90;;;2.51;100.00;101644.41;4907178;28;20462;-86
2021/10/13 05:59:20;;;;;;;4.60;1.08;;;4.20;99.90;;;2.53;100.00;101640.06;4936962;28;20059;-85
2021/10/13 06:01:46;;;;;;;4.95;0.90;;;4.20;99.90;;;2.49;100.00;101634.00;4917657;28;22322;-86
2021/10/13 06:04:20;;;;;;;0.93;0.60;;;4.20;99.90;;;2.53;100.00;101593.25;4936309;28;20049;-86
2021/10/13 06:06:47;;;;;;;3.70;0.88;;;4.20;99.90;;;2.60;100.00;101636.63;4911206;28;20167;-86
2021/10/13 06:09:13;;;;;;;1.40;0.60;;;4.30;99.90;;;2.66;100.00;101637.47;4918095;27;20078;-85
2021/10/13 06:11:39;;;;;;;5.93;0.73;;;4.30;99.90;;;2.73;100.00;101638.34;4948748;28;20131;-85
2021/10/13 06:14:13;;;;;;;4.90;0.93;;;4.40;99.90;;;2.84;100.00;101635.75;4923886;28;20133;-85
2021/10/13 06:16:39;;;;;;;1.92;0.60;;;4.50;99.90;;;2.92;100.00;101638.38;4967600;28;20169;-85
2021/10/13 06:19:05;;;;;;;3.38;0.80;;;4.60;99.90;;;3.00;100.00;101637.50;4925880;28;20063;-86
2021/10/13 06:21:31;;;;;;;4.05;1.02;;;6.10;99.90;;;3.07;100.00;101623.59;4906621;28;20053;-85
2021/10/13 06:24:05;;;;;;;3.60;1.08;;;4.80;99.90;;;3.20;100.00;101628.78;4935361;28;20531;-85
2021/10/13 06:26:31;;;;;;;3.28;1.00;;;5.10;99.90;;;4.13;100.00;101708.38;4918068;28;20084;-85
2021/10/13 06:28:57;;;;;;;4.00;1.02;;;6.10;99.90;;;5.26;100.00;101755.53;4968419;28;20516;-86
2021/10/13 06:31:23;;;;;;;5.18;0.98;;;7.10;99.90;;;6.34;100.00;101743.09;4917235;28;20068;-86
2021/10/13 06:33:54;;;;;;;6.28;1.27;;;8.00;99.90;;;7.00;100.00;101670.59;4925675;28;20060;-86
2021/10/13 06:36:22;;;;;;;9.73;0.95;;;;;;;7.67;100.00;101641.47;4913325;28;20066;-86
2021/10/13 06:38:48;;;;;;;2.25;0.60;;;9.60;99.90;;;8.04;96.41;101619.72;4951095;28;20066;-86
2021/10/13 06:41:14;;;;;;;1.35;0.57;;;10.10;99.90;;;8.45;91.39;101641.56;4924521;28;21321;-86
2021/10/13 06:43:48;;;;;;;5.85;0.80;;;10.50;99.90;;;8.67;89.08;101644.53;4950943;28;20118;-86
2021/10/13 06:46:14;;;;;;;0.68;0.47;;;11.00;99.90;;;9.38;85.79;101722.47;4947260;28;20421;-86
2021/10/13 06:48:40;;;;;;;0.45;0.30;;;11.80;99.90;;;10.06;81.59;101746.06;5011468;28;20059;-86
2021/10/13 06:51:06;;;;;;;1.27;0.30;;;12.20;99.90;;;10.34;79.55;101755.78;4942284;28;20048;-85
2021/10/13 06:53:46;;;;;;;0.77;0.43;;;12.70;99.90;;;10.72;77.90;101768.75;4917937;28;20117;-86
2021/10/13 06:56:21;;;;;;;1.42;0.52;;;13.00;99.90;;;10.62;78.00;101745.31;4957376;28;20028;-86
2021/10/13 06:58:47;;;;;;;0.80;0.43;;;13.20;99.90;;;11.59;76.32;101842.41;4972981;28;20076;-86
2021/10/13 07:01:13;;;;;;;2.72;0.47;;;14.00;99.90;;;12.46;72.80;101894.00;4970595;28;20036;-86
2021/10/13 07:03:47;;;;;;;0.50;0.30;;;;;;;13.81;68.86;101966.50;4949359;28;20036;-86
2021/10/13 07:06:13;;;;;;;5.20;0.30;;;16.30;99.90;;;14.93;65.19;102087.25;4966106;28;20093;-87
2021/10/13 07:08:39;;;;;;;3.33;0.32;;;17.40;99.90;;;15.98;62.88;102048.00;4914433;28;20018;-87
2021/10/13 07:11:06;;;;;;;3.72;0.40;;;18.40;99.90;;;16.88;61.32;102082.53;4979029;28;20024;-86
2021/10/13 07:13:37;;;;;;;0.50;0.30;;;19.30;99.90;;;17.14;60.25;102082.97;4993701;28;20049;-87
2021/10/13 07:16:03;;;;;;;1.17;0.30;;;;;;;18.03;57.17;102142.09;4966895;28;20035;-87
2021/10/13 07:18:31;;;;;;;2.08;0.40;;;21.10;99.90;;;18.80;55.01;102106.59;4968092;28;20041;-87
2021/10/13 07:20:58;;;;;;;0.52;0.30;;;21.40;99.90;;;19.09;52.57;102108.44;4914206;28;20088;-87
2021/10/13 07:23:30;;;;;;;1.80;0.50;;;21.40;98.80;;;18.54;52.73;102060.06;4953944;28;20483;-87
2021/10/13 07:25:56;;;;;;;2.08;0.50;;;21.30;98.50;;;18.20;52.56;102005.19;4936375;28;20025;-87
2021/10/13 07:28:24;;;;;;;0.90;0.32;;;20.90;97.90;;;17.45;53.96;101913.59;4945128;28;20048;-87
2021/10/13 07:30:50;;;;;;;1.50;0.40;;;20.30;98.90;;;17.61;55.13;101965.03;4941200;28;20032;-86
2021/10/13 07:33:16;;;;;;;3.13;0.55;;;;;;;17.45;54.01;101910.91;4916427;28;20482;-86
2021/10/13 07:35:45;;;;;;;2.58;0.45;;;18.90;99.50;;;14.68;60.53;101708.34;4941109;28;20048;-85
2021/10/13 07:38:16;;;;;;;3.08;0.50;;;17.00;99.90;;;13.51;64.59;101654.56;4915910;28;22310;-86
2021/10/13 07:40:46;;;;;;;4.90;0.50;;;16.10;99.90;;;13.31;66.74;101695.97;4917556;28;20068;-85
2021/10/13 07:43:14;;;;;;;2.75;0.45;;;;;;;12.61;69.23;101627.50;4910184;28;20109;-85
2021/10/13 07:45:43;;;;;;;1.88;0.45;;;15.20;99.90;;;13.05;69.72;101693.56;4985094;28;20025;-86
2021/10/13 07:48:10;;;;;;;3.88;0.60;;;15.20;99.90;;;12.90;69.71;101669.47;5003429;28;20053;-85
2021/10/13 07:50:45;;;;;;;5.80;0.50;;;15.20;99.90;;;13.09;69.54;101690.72;4935461;28;20121;-85
2021/10/13 07:53:11;;;;;;;1.13;0.50;;;14.90;99.90;;;12.69;70.96;101644.75;4969731;28;20077;-85
2021/10/13 07:55:37;;;;;;;1.70;0.55;;;15.20;99.90;;;13.62;69.83;101746.72;4964033;28;20041;-85
2021/10/13 07:58:03;;;;;;;0.57;0.43;;;15.80;99.90;;;13.81;67.61;101715.88;4946612;28;20045;-85
2021/10/13 08:00:31;;;;;;;2.28;0.57;;;16.10;99.90;;;14.13;66.54;101726.81;4942594;28;20492;-85
2021/10/13 08:02:57;;;;;;;3.95;0.55;;;16.10;99.90;;;14.21;66.35;101739.69;4902690;28;20033;-85
2021/10/13 08:05:23;;;;;;;0.47;0.40;;;16.30;99.90;;;14.29;66.26;101727.81;4923341;28;20050;-85
2021/10/13 08:07:49;;;;;;;1.42;0.47;;;16.30;99.90;;;15.00;65.58;101814.66;4928398;28;20138;-85
2021/10/13 08:10:16;;;;;;;3.60;0.70;;;16.70;99.90;;;16.21;62.88;101903.38;4941185;28;20025;-85
2021/10/13 08:12:42;;;;;;;2.13;0.40;;;17.30;99.90;;;16.40;62.17;101900.63;4974757;28;20091;-85
2021/10/13 08:15:17;;;;;;;1.67;0.55;;;18.50;99.90;;;17.88;57.92;101975.94;4982568;28;20039;-85
2021/10/13 08:17:44;;;;;;;0.95;0.50;;;18.70;99.90;;;18.82;55.99;102045.13;4965582;28;20042;-85
2021/10/13 08:20:11;;;;;;;4.03;0.50;;;19.90;99.90;;;19.72;54.66;102081.41;4936727;28;20020;-84
2021/10/13 08:22:42;;;;;;;1.60;0.43;;;20.70;99.90;;;19.78;52.93;102061.44;4933043;28;20034;-85
2021/10/13 08:25:09;;;;;;;2.92;0.70;;;21.00;99.90;;;19.43;54.33;101960.34;4925833;28;20037;-85
2021/10/13 08:27:36;;;;;;;1.42;0.60;;;21.10;99.90;;;20.37;50.93;102047.78;4966391;28;20708;-86
2021/10/13 08:30:08;;;;;;;2.78;0.40;;;20.50;99.90;;;18.39;55.37;102002.31;4932264;28;20700;-85
2021/10/13 08:32:34;;;;;;;1.05;0.40;;;;;;;17.17;58.71;101902.69;4937263;28;20133;-85
2021/10/13 08:35:02;;;;;;;2.30;0.68;;;18.30;99.90;;;15.59;62.80;101797.59;4988973;28;20044;-85
2021/10/13 08:37:28;;;;;;;1.25;0.50;;;17.80;99.90;;;16.69;62.68;101943.41;5017525;28;20047;-84
2021/10/13 08:39:54;;;;;;;1.30;0.40;;;17.30;99.90;;;16.02;64.29;101873.38;5058408;28;20024;-85
2021/10/13 08:42:28;;;;;;;3.03;0.55;;;17.00;99.90;;;14.77;67.12;101739.72;4960707;28;20039;-84
2021/10/13 08:44:56;;;;;;;0.70;0.40;;;16.80;99.90;;;15.54;66.34;101827.97;4946761;28;20154;-86
2021/10/13 08:47:22;;;;;;;2.30;0.60;;;17.10;99.90;;;15.48;63.97;101799.91;4952916;28;20053;-85
2021/10/13 08:49:51;;;;;;;5.40;0.70;;;16.70;99.90;;;15.08;68.04;101779.81;4918351;28;20057;-85
2021/10/13 08:52:20;;;;;;;2.20;0.45;;;16.70;99.90;;;15.51;66.68;101815.69;4969827;28;20032;-85
2021/10/13 08:54:46;;;;;;;3.40;0.52;;;16.60;99.90;;;14.98;68.23;101751.06;4931667;28;20025;-85
2021/10/13 08:57:23;;;;;;;1.52;0.50;;;16.20;99.90;;;15.00;69.79;101779.31;4971753;28;20044;-84
2021/10/13 08:59:51;;;;;;;2.15;0.45;;;16.30;99.90;;;15.44;66.51;101794.84;4954424;28;20017;-84
2021/10/13 09:02:56;;;;;;;1.70;0.43;;;16.30;99.90;;;15.20;67.59;101752.66;4971772;27;20044;-84
2021/10/13 09:05:25;;;;;;;3.28;0.50;;;;;;;14.30;71.08;101695.09;4962007;28;20054;-86
2021/10/13 09:08:10;;;;;;;1.58;0.43;;;15.60;99.90;;;14.01;69.81;101669.09;4962806;28;20549;-84
2021/10/13 09:10:59;;;;;;;1.00;0.40;;;15.20;99.90;;;13.79;72.78;101671.88;4947335;28;20531;-85
2021/10/13 09:14:19;;;;;;;1.95;0.47;;;14.80;99.90;;;13.92;72.77;101691.56;4944233;28;20046;-86
2021/10/13 09:17:27;;;;;;;1.08;0.57;;;15.00;99.90;;;13.93;73.86;101680.91;4934234;28;20053;-86
2021/10/13 09:20:40;;;;;;;0.95;0.40;;;14.80;99.90;;;13.03;74.58;101579.06;4976568;28;20036;-83
2021/10/13 09:23:44;;;;;;;2.40;0.47;;;14.40;99.90;;;12.65;76.37;101565.69;4965233;28;20100;-83
2021/10/13 09:27:04;;;;;;;2.25;0.57;;;14.30;99.90;;;12.87;79.02;101623.78;4931420;28;20036;-86
2021/10/13 09:30:02;;;;;;;3.47;0.73;;;14.60;99.90;;;12.73;77.65;101582.09;4951529;28;20396;-86
2021/10/13 09:33:28;;;;;;;1.10;0.63;;;14.20;99.90;;;12.44;80.19;101588.56;4950915;28;20043;-84
2021/10/13 09:36:23;;;;;;;4.28;0.75;;;14.20;99.90;;;12.15;81.50;101552.78;4972483;28;20128;-83
2021/10/13 09:39:26;;;;;;;2.20;0.50;;;13.80;99.90;;;11.97;84.13;101563.16;4979685;28;20039;-85
2021/10/13 09:42:54;;;;;;;2.67;0.60;;;13.40;99.90;;;11.55;83.57;101537.44;4988763;27;20053;-84
2021/10/13 09:46:20;;;;;;;1.98;0.50;;;12.90;99.90;;;11.22;85.06;101524.59;4979425;28;20527;-84
2021/10/13 09:49:44;;;;;;;2.28;0.50;;;12.40;99.90;;;10.90;86.12;101517.84;4938356;28;20600;-84
2021/10/13 09:52:46;;;;;;;2.42;0.60;;;12.40;99.90;;;11.05;83.95;101513.81;4965013;28;20041;-84
2021/10/13 09:55:44;;;;;;;1.05;0.50;;;12.60;99.90;;;11.18;85.67;101533.53;4961652;28;20491;-83
2021/10/13 09:58:59;;;;;;;2.35;0.60;;;12.40;99.90;;;11.02;84.06;101500.75;5017549;28;20042;-83
2021/10/13 10:01:42;;;;;;;4.47;0.43;;;12.50;99.90;;;11.14;83.71;101512.63;4975549;28;20054;-84
2021/10/13 10:04:27;;;;;;;0.30;0.20;;;12.50;99.90;;;11.22;85.25;101527.22;4954959;28;20049;-85
2021/10/13 10:07:26;;;;;;;3.92;0.52;;;12.20;99.90;;;10.39;82.71;101440.63;4947687;28;20371;-84
2021/10/13 10:10:43;;;;;;;1.48;0.55;;;12.10;99.90;;;10.96;84.21;101522.06;4959607;28;20064;-85
2021/10/13 10:14:37;;;;;;;5.13;0.50;;;12.40;99.90;;;11.34;84.25;101567.25;4953067;28;20628;-85
2021/10/13 10:18:01;;;;;;;0.88;0.30;;;12.60;99.90;;;11.00;81.56;101498.16;4990181;28;20113;-84
2021/10/13 10:21:45;;;;;;;3.70;0.43;;;12.40;99.90;;;10.65;81.93;101481.84;4962948;28;20186;-84
2021/10/13 10:24:50;;;;;;;0.57;0.25;;;12.30;99.90;;;10.92;82.09;101507.25;4970218;28;20190;-84
2021/10/13 10:27:38;;;;;;;0.77;0.40;;;12.30;99.90;;;10.92;80.73;101494.09;4960174;28;20051;-85
2021/10/13 10:30:30;;;;;;;1.73;0.20;;;12.30;99.90;;;11.11;83.38;101528.56;4942498;28;20121;-84
2021/10/13 10:33:26;;;;;;;1.40;0.35;;;12.60;99.90;;;11.22;79.51;101518.47;4956945;28;20108;-84
2021/10/13 10:36:07;;;;;;;2.17;0.30;;;12.60;99.90;;;11.12;78.71;101496.00;4963026;28;20042;-84
2021/10/13 10:38:49;;;;;;;2.40;0.30;;;12.60;99.90;;;11.11;77.29;101489.03;4982462;28;20102;-84
2021/10/13 10:41:37;;;;;;;4.38;0.40;;;12.50;99.90;;;11.11;76.51;101492.50;4956167;28;20041;-84
2021/10/13 10:44:33;;;;;;;1.95;0.40;;;12.60;99.90;;;11.17;78.17;101508.09;4926244;28;20041;-84
2021/10/13 10:47:15;;;;;;;3.47;0.40;;;12.50;99.90;;;11.00;75.42;101470.97;4958658;28;20052;-84
2021/10/13 10:50:02;;;;;;;2.67;0.30;;;12.40;99.90;;;11.03;76.54;101490.13;4935613;28;20045;-84
2021/10/13 10:52:36;;;;;;;1.83;0.43;;;12.50;99.90;;;11.01;76.21;101476.16;4970913;28;20036;-84
2021/10/13 10:55:09;;;;;;;0.40;0.30;;;12.50;99.90;;;11.20;78.89;101513.25;4953642;28;20048;-84
2021/10/13 10:57:51;;;;;;;1.15;0.30;;;12.70;99.90;;;11.33;75.44;101507.53;4951762;28;20201;-83